Time;durP1;ratioP1;P1;durP2;ratioP2;P2;SDS_P1;SDS_P2;PMS_P1;PMS_P2;Temp;Humidity;BMP_temperature;BMP_pressure;BME280_temperature;BME280_humidity;BME280_pressure;Samples;Min_cycle;Max_cycle;Signal;HPM_P1;HPM_P2
2022/04/17 00:01:10;;;;;;;10.43;7.28;;;;;;;;;;5053443;28;20485;-77
2022/04/17 00:03:36;;;;;;;11.75;8.57;;;;;;;;;;5053438;28;20472;-83
2022/04/17 00:06:02;;;;;;;12.23;8.27;;;;;;;;;;5053651;28;20041;-80
2022/04/17 00:08:28;;;;;;;8.80;7.40;;;;;;;;;;5053581;28;20029;-81
2022/04/17 00:10:54;;;;;;;9.05;8.15;;;;;;;;;;5053475;28;20104;-79
2022/04/17 00:13:21;;;;;;;10.70;8.45;;;;;;;;;;5053472;28;20028;-79
2022/04/17 00:15:47;;;;;;;8.90;7.25;;;;;;;;;;5053295;28;20104;-80
2022/04/17 00:18:13;;;;;;;9.43;8.57;;;;;;;;;;5053193;28;20036;-81
2022/04/17 00:20:39;;;;;;;9.30;8.30;;;;;;;;;;5053429;28;20029;-81
2022/04/17 00:23:05;;;;;;;8.00;7.20;;;;;;;;;;5053052;28;20483;-82
2022/04/17 00:25:32;;;;;;;13.75;9.18;;;;;;;;;;5053335;28;20033;-82
2022/04/17 00:28:01;;;;;;;10.05;8.40;;;;;;;;;;5035455;28;20631;-78
2022/04/17 00:30:27;;;;;;;9.88;7.85;;;;;;;;;;5057466;28;20028;-80
2022/04/17 00:32:53;;;;;;;12.45;8.43;;;;;;;;;;5057308;28;20464;-82
2022/04/17 00:35:19;;;;;;;9.25;7.57;;;;;;;;;;5039399;28;20029;-82
2022/04/17 00:37:46;;;;;;;12.35;8.18;;;;;;;;;;5057044;28;20472;-82
2022/04/17 00:40:13;;;;;;;7.97;7.18;;;;;;;;;;5057035;28;20029;-81
2022/04/17 00:42:41;;;;;;;10.23;9.23;;;;;;;;;;5057173;28;20025;-82
2022/04/17 00:45:07;;;;;;;9.65;8.65;;;;;;;;;;5056989;28;20025;-79
2022/04/17 00:47:33;;;;;;;11.25;8.18;;;;;;;;;;5057101;28;20108;-79
2022/04/17 00:49:59;;;;;;;9.95;8.93;;;;;;;;;;5057048;28;20100;-81
2022/04/17 00:52:25;;;;;;;9.95;8.95;;;;;;;;;;5039130;28;20373;-82
2022/04/17 00:54:53;;;;;;;10.70;8.20;;;;;;;;;;5039143;28;20380;-81
2022/04/17 00:57:20;;;;;;;10.70;8.23;;;;;;;;;;5056828;28;20037;-84
2022/04/17 00:59:46;;;;;;;8.60;6.85;;;;;;;;;;5056452;28;20049;-79
2022/04/17 01:02:18;;;;;;;8.63;7.70;;;;;;;;;;5056659;28;20038;-83
2022/04/17 01:04:46;;;;;;;10.35;8.38;;;;;;;;;;5039088;28;20056;-83
2022/04/17 01:07:14;;;;;;;9.25;7.88;;;;;;;;;;5056675;28;20487;-79
2022/04/17 01:09:46;;;;;;;9.10;7.90;;;;;;;;;;5056818;28;20100;-81
2022/04/17 01:12:13;;;;;;;8.95;7.28;;;;;;;;;;5038704;28;20128;-80
2022/04/17 01:14:42;;;;;;;8.48;6.97;;;;;;;;;;5056709;28;20031;-82
2022/04/17 01:17:09;;;;;;;8.93;8.02;;;;;;;;;;5056419;28;20035;-83
2022/04/17 01:19:39;;;;;;;8.18;7.38;;;;;;;;;;5038726;28;20025;-81
2022/04/17 01:22:10;;;;;;;8.13;7.28;;;;;;;;;;5056497;28;20460;-84
2022/04/17 01:27:25;;;;;;;6.30;5.20;;;;;;;;;;5056525;28;20091;-80
2022/04/17 01:29:53;;;;;;;7.60;6.80;;;;;;;;;;5056402;28;20124;-83
2022/04/17 01:32:19;;;;;;;6.20;5.55;;;;;;;;;;5038428;28;20070;-81
2022/04/17 01:34:45;;;;;;;6.60;5.95;;;;;;;;;;5056256;28;20025;-85
2022/04/17 01:37:12;;;;;;;8.73;6.43;;;;;;;;;;5056108;28;20498;-80
2022/04/17 01:39:38;;;;;;;7.78;6.15;;;;;;;;;;5056106;28;20033;-82
2022/04/17 01:42:04;;;;;;;7.22;6.05;;;;;;;;;;5056320;28;20078;-83
2022/04/17 01:44:30;;;;;;;7.30;6.47;;;;;;;;;;5056247;28;20079;-77
2022/04/17 01:46:57;;;;;;;10.23;6.50;;;;;;;;;;5055725;28;20024;-85
2022/04/17 01:49:23;;;;;;;6.70;6.03;;;;;;;;;;5056014;28;20361;-80
2022/04/17 02:02:44;;;;;;;7.97;6.88;;;;;;;;;;5096103;27;1672430;-82
2022/04/17 02:05:10;;;;;;;7.28;6.25;;;;;;;;;;5131051;28;20032;-82
2022/04/17 02:07:37;;;;;;;7.03;6.32;;;;;;;;;;5130724;28;20031;-83
2022/04/17 02:10:04;;;;;;;6.95;5.78;;;;;;;;;;5130534;28;20039;-81
2022/04/17 02:12:31;;;;;;;6.65;5.95;;;;;;;;;;5129399;28;20114;-82
2022/04/17 02:14:57;;;;;;;7.47;5.38;;;;;;;;;;5130967;27;20023;-83
2022/04/17 02:17:23;;;;;;;7.45;6.65;;;;;;;;;;5129286;28;20462;-82
2022/04/17 02:19:49;;;;;;;7.05;6.35;;;;;;;;;;5130447;28;20062;-79
2022/04/17 02:22:15;;;;;;;8.32;6.70;;;;;;;;;;5128877;28;20030;-80
2022/04/17 02:24:41;;;;;;;7.53;6.15;;;;;;;;;;5129080;28;20142;-86
2022/04/17 02:27:08;;;;;;;8.43;6.47;;;;;;;;;;5130233;28;20032;-87
2022/04/17 02:29:34;;;;;;;7.90;6.03;;;;;;;;;;5130124;28;20020;-78
2022/04/17 02:32:00;;;;;;;8.43;6.55;;;;;;;;;;5129902;28;20036;-76
2022/04/17 02:34:26;;;;;;;8.93;6.78;;;;;;;;;;5129844;27;20027;-80
2022/04/17 02:36:53;;;;;;;7.80;6.25;;;;;;;;;;5129844;28;20495;-76
2022/04/17 02:39:19;;;;;;;7.30;6.32;;;;;;;;;;5129765;27;20031;-76
2022/04/17 02:41:45;;;;;;;6.63;5.80;;;;;;;;;;5129723;28;20031;-76
2022/04/17 02:44:11;;;;;;;7.65;6.32;;;;;;;;;;5129956;28;20058;-75
2022/04/17 02:49:23;;;;;;;;;;;;;;;;;;5130038;28;20393;-80
2022/04/17 02:51:49;;;;;;;7.88;6.60;;;;;;;;;;5129569;28;19911;-77
2022/04/17 02:54:15;;;;;;;6.88;5.85;;;;;;;;;;5129493;28;20089;-80
2022/04/17 02:56:41;;;;;;;6.60;5.80;;;;;;;;;;5129793;28;20024;-77
2022/04/17 02:59:07;;;;;;;8.18;6.72;;;;;;;;;;5129372;28;20051;-81
2022/04/17 03:07:02;;;;;;;8.68;6.57;;;;;;;;;;5115579;28;20042;-79
2022/04/17 03:09:28;;;;;;;6.35;5.28;;;;;;;;;;5115774;28;20027;-80
2022/04/17 03:11:54;;;;;;;6.50;5.47;;;;;;;;;;5115482;28;20385;-82
2022/04/17 03:14:20;;;;;;;7.20;5.50;;;;;;;;;;5115739;28;20567;-78
2022/04/17 03:16:47;;;;;;;7.40;6.13;;;;;;;;;;5115407;28;20016;-81
2022/04/17 03:19:13;;;;;;;6.35;5.47;;;;;;;;;;5115722;28;20024;-80
2022/04/17 03:21:39;;;;;;;6.10;5.05;;;;;;;;;;5115614;28;20118;-76
2022/04/17 03:24:05;;;;;;;6.90;5.80;;;;;;;;;;5115330;28;20024;-78
2022/04/17 03:26:33;;;;;;;6.15;5.55;;;;;;;;;;5115508;28;20052;-83
2022/04/17 03:28:59;;;;;;;7.32;6.50;;;;;;;;;;5115117;28;20031;-76
2022/04/17 03:31:26;;;;;;;7.50;6.10;;;;;;;;;;5115358;28;20039;-78
2022/04/17 03:33:52;;;;;;;6.50;5.10;;;;;;;;;;5115102;28;20526;-79
2022/04/17 03:36:19;;;;;;;6.65;5.55;;;;;;;;;;5115167;28;20023;-77
2022/04/17 03:38:45;;;;;;;6.55;5.53;;;;;;;;;;5115105;28;20465;-81
2022/04/17 03:41:11;;;;;;;6.60;5.50;;;;;;;;;;5115070;28;20023;-81
2022/04/17 03:43:37;;;;;;;6.53;5.55;;;;;;;;;;5115050;28;20027;-77
2022/04/17 03:46:03;;;;;;;6.97;5.50;;;;;;;;;;5114794;28;20477;-78
2022/04/17 03:48:30;;;;;;;6.95;5.57;;;;;;;;;;5114964;28;20031;-76
2022/04/17 03:50:56;;;;;;;7.22;5.40;;;;;;;;;;5114747;28;20031;-81
2022/04/17 03:53:22;;;;;;;6.20;5.60;;;;;;;;;;5114747;28;20027;-76
2022/04/17 03:55:48;;;;;;;6.68;5.30;;;;;;;;;;5114458;28;20020;-77
2022/04/17 03:58:14;;;;;;;7.07;5.55;;;;;;;;;;5114179;28;20027;-83
2022/04/17 04:00:41;;;;;;;5.88;4.47;;;;;;;;;;5113535;28;20024;-81
2022/04/17 04:03:07;;;;;;;7.40;5.00;;;;;;;;;;5111118;28;20023;-76
2022/04/17 04:05:33;;;;;;;6.45;5.40;;;;;;;;;;5113966;28;20098;-76
2022/04/17 04:07:59;;;;;;;6.93;5.45;;;;;;;;;;5113568;28;20068;-77
2022/04/17 04:10:25;;;;;;;6.70;4.72;;;;;;;;;;5113518;28;20107;-76
2022/04/17 04:12:51;;;;;;;6.88;5.00;;;;;;;;;;5113919;28;20027;-79
2022/04/17 04:15:17;;;;;;;5.85;5.03;;;;;;;;;;5112222;28;20038;-78
2022/04/17 04:17:43;;;;;;;7.25;5.57;;;;;;;;;;5114419;28;20023;-78
2022/04/17 04:20:10;;;;;;;6.30;5.13;;;;;;;;;;5113996;28;20176;-76
2022/04/17 04:34:49;;;;;;;5.55;4.93;;;;;;;;;;5102692;27;1456391;-80
2022/04/17 04:37:15;;;;;;;5.85;5.10;;;;;;;;;;5129196;28;20063;-83
2022/04/17 04:39:42;;;;;;;7.05;5.63;;;;;;;;;;5129940;28;20031;-82
2022/04/17 04:53:50;;;;;;;6.80;5.00;;;;;;;;;;6196231;22;1447589;-78
2022/04/17 04:56:36;;;;;;;7.30;5.75;;;;;;;;;;6253577;23;20012;-79
2022/04/17 04:59:12;;;;;;;8.55;6.47;;;;;;;;;;6227077;23;20326;-79
2022/04/17 05:01:46;;;;;;;5.88;5.28;;;;;;;;;;6253080;23;20008;-80
2022/04/17 05:04:22;;;;;;;6.65;5.65;;;;;;;;;;6253874;23;20007;-79
2022/04/17 05:06:49;;;;;;;6.97;5.65;;;;;;;;;;6253624;23;20442;-78
2022/04/17 05:09:15;;;;;;;7.38;6.55;;;;;;;;;;6253756;23;20022;-78
2022/04/17 05:11:41;;;;;;;6.85;5.88;;;;;;;;;;6253409;23;20004;-80
2022/04/17 05:14:09;;;;;;;7.68;6.63;;;;;;;;;;6253802;23;20000;-76
2022/04/17 05:16:36;;;;;;;7.22;6.28;;;;;;;;;;6253418;23;20375;-80
2022/04/17 05:21:47;;;;;;;;;;;;;;;;;;6254161;23;20070;-80
2022/04/17 05:24:16;;;;;;;7.95;6.38;;;;;;;;;;6253401;23;19978;-78
2022/04/17 05:26:43;;;;;;;6.68;6.05;;;;;;;;;;6253400;23;20011;-81
2022/04/17 05:29:09;;;;;;;8.05;7.25;;;;;;;;;;6253341;23;20007;-85
2022/04/17 05:31:35;;;;;;;8.23;6.07;;;;;;;;;;6226468;23;20374;-78
2022/04/17 05:34:01;;;;;;;8.10;6.43;;;;;;;;;;6253185;23;20004;-79
2022/04/17 05:36:27;;;;;;;6.82;6.13;;;;;;;;;;6226194;23;20004;-78
2022/04/17 05:38:55;;;;;;;7.07;6.38;;;;;;;;;;6253125;23;20004;-82
2022/04/17 05:41:26;;;;;;;6.82;5.63;;;;;;;;;;6252613;23;20004;-83
2022/04/17 05:43:52;;;;;;;7.13;6.10;;;;;;;;;;6226011;23;20433;-78
2022/04/17 05:46:19;;;;;;;7.18;5.43;;;;;;;;;;6252989;23;20057;-79
2022/04/17 05:48:45;;;;;;;6.88;6.18;;;;;;;;;;6253290;23;20103;-78
2022/04/17 05:51:11;;;;;;;6.57;5.88;;;;;;;;;;6253257;23;20008;-78
2022/04/17 05:53:38;;;;;;;8.73;5.85;;;;;;;;;;6249313;23;20415;-82
2022/04/17 05:56:05;;;;;;;7.13;6.43;;;;;;;;;;6219452;23;20091;-79
2022/04/17 05:58:31;;;;;;;8.10;6.03;;;;;;;;;;6246503;23;20000;-81
2022/04/17 06:00:57;;;;;;;7.00;5.97;;;;;;;;;;6246240;23;20004;-82
2022/04/17 06:03:23;;;;;;;5.75;5.15;;;;;;;;;;6246118;23;20120;-81
2022/04/17 06:05:50;;;;;;;6.32;5.50;;;;;;;;;;6246239;23;20004;-78
2022/04/17 06:08:16;;;;;;;5.43;4.78;;;;;;;;;;6246080;23;20497;-81
2022/04/17 06:10:42;;;;;;;7.13;6.40;;;;;;;;;;6246162;23;20079;-79
2022/04/17 06:13:08;;;;;;;6.43;5.38;;;;;;;;;;6246357;23;20003;-81
2022/04/17 06:15:42;;;;;;;4.85;4.35;;;;;;;;;;6246052;23;20000;-81
2022/04/17 06:18:15;;;;;;;4.45;4.05;;;;;;;;;;6246357;23;20023;-79
2022/04/17 06:20:41;;;;;;;7.15;6.35;;;;;;;;;;6246182;23;20447;-78
2022/04/17 06:23:08;;;;;;;6.47;5.88;;;;;;;;;;6246033;23;20018;-77
2022/04/17 06:25:34;;;;;;;5.35;4.65;;;;;;;;;;6246038;23;20000;-82
2022/04/17 06:28:00;;;;;;;5.97;5.38;;;;;;;;;;6246202;23;20000;-80
2022/04/17 06:30:27;;;;;;;5.55;4.55;;;;;;;;;;6219073;23;20040;-81
2022/04/17 06:32:53;;;;;;;6.80;5.82;;;;;;;;;;6219215;23;20004;-79
2022/04/17 06:35:19;;;;;;;5.53;4.53;;;;;;;;;;6246073;23;20067;-77
2022/04/17 06:38:05;;;;;;;5.47;3.30;;;;;;;;;;6246202;23;20008;-79
2022/04/17 06:40:36;;;;;;;4.60;3.30;;;;;;;;;;6246408;23;20308;-82
2022/04/17 06:43:05;;;;;;;5.20;4.70;;;;;;;;;;6245621;23;20012;-78
2022/04/17 06:45:31;;;;;;;3.72;2.83;;;;;;;;;;6246211;23;20011;-78
2022/04/17 06:47:58;;;;;;;3.40;2.67;;;;;;;;;;6245870;23;20000;-83
2022/04/17 06:50:24;;;;;;;5.07;3.65;;;;;;;;;;6246077;23;20004;-81
2022/04/17 06:52:53;;;;;;;4.82;3.72;;;;;;;;;;6245976;23;20016;-79
2022/04/17 06:55:19;;;;;;;3.80;2.70;;;;;;;;;;6245461;23;20008;-77
2022/04/17 06:57:47;;;;;;;4.57;3.50;;;;;;;;;;6245931;23;20032;-79
2022/04/17 07:00:13;;;;;;;4.43;3.00;;;;;;;;;;6245730;23;20003;-79
2022/04/17 07:02:40;;;;;;;3.05;2.63;;;;;;;;;;6245727;23;20058;-81
2022/04/17 07:05:07;;;;;;;3.80;3.40;;;;;;;;;;6244666;23;20321;-80
2022/04/17 07:07:36;;;;;;;4.05;2.95;;;;;;;;;;6245361;23;20004;-80
2022/04/17 07:10:03;;;;;;;3.35;2.95;;;;;;;;;;6245037;23;20000;-78
2022/04/17 07:12:29;;;;;;;3.22;2.90;;;;;;;;;;6245325;23;20011;-77
2022/04/17 07:14:55;;;;;;;4.40;2.13;;;;;;;;;;6245064;23;20011;-80
2022/04/17 07:17:25;;;;;;;3.20;2.08;;;;;;;;;;6245703;23;20004;-77
2022/04/17 07:19:51;;;;;;;2.75;2.42;;;;;;;;;;6245003;23;20000;-81
2022/04/17 07:22:18;;;;;;;3.08;1.90;;;;;;;;;;6244824;23;20019;-80
2022/04/17 07:24:51;;;;;;;3.08;2.35;;;;;;;;;;6218642;23;20004;-83
2022/04/17 07:27:17;;;;;;;3.10;2.50;;;;;;;;;;6218738;23;20387;-78
2022/04/17 07:29:43;;;;;;;4.13;2.83;;;;;;;;;;6245559;23;20011;-79
2022/04/17 07:32:09;;;;;;;3.85;3.25;;;;;;;;;;6218506;23;20335;-79
2022/04/17 07:34:35;;;;;;;5.57;4.03;;;;;;;;;;6245609;23;20130;-76
2022/04/17 07:37:02;;;;;;;4.60;2.97;;;;;;;;;;6245434;23;20000;-79
2022/04/17 07:39:28;;;;;;;5.40;4.10;;;;;;;;;;6245657;23;20031;-79
2022/04/17 07:41:54;;;;;;;4.50;3.88;;;;;;;;;;6245358;23;20012;-79
2022/04/17 07:44:20;;;;;;;6.57;3.50;;;;;;;;;;6245528;23;20446;-83
2022/04/17 07:46:46;;;;;;;3.13;2.70;;;;;;;;;;6245574;23;20004;-79
2022/04/17 07:49:12;;;;;;;3.72;3.05;;;;;;;;;;6245296;23;20004;-78
2022/04/17 07:51:38;;;;;;;6.35;3.90;;;;;;;;;;6245224;23;20007;-78
2022/04/17 07:54:05;;;;;;;12.32;9.23;;;;;;;;;;6245144;23;20008;-78
2022/04/17 07:56:31;;;;;;;7.80;7.10;;;;;;;;;;6245503;23;20000;-80
2022/04/17 07:58:57;;;;;;;5.05;4.32;;;;;;;;;;6245152;23;20004;-77
2022/04/17 08:01:23;;;;;;;6.38;5.82;;;;;;;;;;6245144;23;20004;-78
2022/04/17 08:03:49;;;;;;;4.57;4.18;;;;;;;;;;6245369;23;20091;-81
2022/04/17 08:06:17;;;;;;;4.22;2.90;;;;;;;;;;6245789;23;20008;-80
2022/04/17 08:08:52;;;;;;;2.88;2.58;;;;;;;;;;6218516;23;20012;-83
2022/04/17 08:11:18;;;;;;;9.23;6.97;;;;;;;;;;6218316;23;20383;-81
2022/04/17 08:13:46;;;;;;;4.25;3.80;;;;;;;;;;6245362;23;20003;-79
2022/04/17 08:16:14;;;;;;;4.38;3.85;;;;;;;;;;6244851;23;20431;-83
2022/04/17 08:18:41;;;;;;;4.47;4.07;;;;;;;;;;6245212;23;20004;-78
2022/04/17 08:21:07;;;;;;;4.28;3.72;;;;;;;;;;6244927;23;20087;-79
2022/04/17 08:23:37;;;;;;;6.95;4.88;;;;;;;;;;6245216;23;20011;-78
2022/04/17 08:26:03;;;;;;;5.72;5.10;;;;;;;;;;6244684;23;20050;-81
2022/04/17 08:28:30;;;;;;;5.95;5.40;;;;;;;;;;6245150;23;20063;-78
2022/04/17 08:30:57;;;;;;;6.70;6.00;;;;;;;;;;6244881;23;20095;-80
2022/04/17 08:33:24;;;;;;;4.22;3.80;;;;;;;;;;6245362;23;20004;-77
2022/04/17 08:35:51;;;;;;;4.40;3.67;;;;;;;;;;6245468;23;20015;-80
2022/04/17 08:38:19;;;;;;;4.65;4.20;;;;;;;;;;6244876;23;20027;-81
2022/04/17 08:40:46;;;;;;;5.70;4.80;;;;;;;;;;6245163;23;20011;-79
2022/04/17 08:43:12;;;;;;;6.88;6.28;;;;;;;;;;6244780;23;20058;-78
2022/04/17 08:45:41;;;;;;;6.07;4.95;;;;;;;;;;6245009;23;20071;-78
2022/04/17 08:48:07;;;;;;;4.43;4.03;;;;;;;;;;6244724;23;20062;-77
2022/04/17 08:50:34;;;;;;;6.10;5.10;;;;;;;;;;6245094;23;20015;-77
2022/04/17 08:53:02;;;;;;;5.43;4.93;;;;;;;;;;6244533;23;20012;-78
2022/04/17 08:55:29;;;;;;;6.53;5.70;;;;;;;;;;6245058;23;20008;-77
2022/04/17 08:57:56;;;;;;;5.18;4.68;;;;;;;;;;6245103;23;20004;-80
2022/04/17 09:00:22;;;;;;;4.05;3.63;;;;;;;;;;6245008;23;20355;-78
2022/04/17 09:02:49;;;;;;;4.88;3.90;;;;;;;;;;6244995;23;20075;-77
2022/04/17 09:05:17;;;;;;;6.22;5.63;;;;;;;;;;6217984;23;20011;-76
2022/04/17 09:07:47;;;;;;;5.15;2.72;;;;;;;;;;6244929;23;20005;-75
2022/04/17 09:10:23;;;;;;;4.72;4.22;;;;;;;;;;6244674;23;20012;-78
2022/04/17 09:12:51;;;;;;;4.55;3.85;;;;;;;;;;6244570;23;20046;-78
2022/04/17 09:15:17;;;;;;;7.80;5.50;;;;;;;;;;6244783;23;20008;-78
2022/04/17 09:17:43;;;;;;;7.82;4.80;;;;;;;;;;6244862;23;20011;-78
2022/04/17 09:20:18;;;;;;;4.35;3.28;;;;;;;;;;6244772;23;20027;-79
2022/04/17 09:22:48;;;;;;;4.65;4.15;;;;;;;;;;6244480;23;20008;-79
2022/04/17 09:25:14;;;;;;;4.97;4.43;;;;;;;;;;6244765;23;20007;-81
2022/04/17 09:27:54;;;;;;;6.95;6.25;;;;;;;;;;6217742;23;20008;-77
2022/04/17 09:30:24;;;;;;;6.70;6.00;;;;;;;;;;6246839;23;20083;-80
2022/04/17 09:32:53;;;;;;;7.25;6.53;;;;;;;;;;6246724;23;20431;-78
2022/04/17 09:35:23;;;;;;;7.55;6.38;;;;;;;;;;6246699;23;20323;-79
2022/04/17 09:37:50;;;;;;;5.65;5.05;;;;;;;;;;6219934;23;20347;-79
2022/04/17 09:40:23;;;;;;;7.00;6.32;;;;;;;;;;6246748;23;20069;-78
2022/04/17 09:42:49;;;;;;;5.95;5.35;;;;;;;;;;6219864;23;20110;-77
2022/04/17 09:45:15;;;;;;;7.30;6.32;;;;;;;;;;6246493;23;20011;-79
2022/04/17 09:47:55;;;;;;;7.32;6.65;;;;;;;;;;6246417;23;20000;-77
2022/04/17 09:50:30;;;;;;;6.82;6.13;;;;;;;;;;6246376;23;20494;-79
2022/04/17 09:52:59;;;;;;;9.00;6.82;;;;;;;;;;6246520;23;20015;-79
2022/04/17 09:55:29;;;;;;;6.95;6.25;;;;;;;;;;6246297;23;20032;-79
2022/04/17 09:57:58;;;;;;;7.20;6.03;;;;;;;;;;6246410;23;20006;-80
2022/04/17 10:00:25;;;;;;;9.13;8.18;;;;;;;;;;6219577;23;20000;-78
2022/04/17 10:02:51;;;;;;;8.60;7.68;;;;;;;;;;6246402;23;20039;-79
2022/04/17 10:05:19;;;;;;;7.18;6.47;;;;;;;;;;6246240;23;20004;-79
2022/04/17 10:07:46;;;;;;;6.43;5.07;;;;;;;;;;6246234;23;20443;-78
2022/04/17 10:10:13;;;;;;;5.32;4.20;;;;;;;;;;6246029;23;20000;-77
2022/04/17 10:12:43;;;;;;;5.28;4.72;;;;;;;;;;6246034;23;20331;-77
2022/04/17 10:15:11;;;;;;;7.88;6.53;;;;;;;;;;6245316;23;20004;-77
2022/04/17 10:20:25;;;;;;;7.40;6.65;;;;;;;;;;6245988;23;20019;-78
2022/04/17 10:22:57;;;;;;;7.22;6.53;;;;;;;;;;6245530;23;20011;-77
2022/04/17 10:25:24;;;;;;;8.25;7.18;;;;;;;;;;6245852;23;20030;-76
2022/04/17 10:27:55;;;;;;;8.10;7.30;;;;;;;;;;6245470;23;20042;-78
2022/04/17 10:30:23;;;;;;;7.93;6.78;;;;;;;;;;6245632;23;20004;-77
2022/04/17 10:33:02;;;;;;;6.68;6.05;;;;;;;;;;6245509;23;20004;-76
2022/04/17 10:35:37;;;;;;;5.85;5.25;;;;;;;;;;6245421;23;20004;-76
2022/04/17 10:38:22;;;;;;;7.15;6.53;;;;;;;;;;6245580;23;20001;-77
2022/04/17 10:41:07;;;;;;;6.85;6.18;;;;;;;;;;6245485;23;20004;-77
2022/04/17 10:43:42;;;;;;;7.03;5.70;;;;;;;;;;6245630;23;20087;-76
2022/04/17 10:46:16;;;;;;;6.25;5.55;;;;;;;;;;6245489;23;20454;-82
2022/04/17 10:49:04;;;;;;;7.30;6.60;;;;;;;;;;6218529;23;20004;-79
2022/04/17 10:51:36;;;;;;;8.13;7.40;;;;;;;;;;6245334;23;20031;-77
2022/04/17 10:54:06;;;;;;;6.60;6.00;;;;;;;;;;6218592;23;20074;-79
2022/04/17 10:56:33;;;;;;;7.45;6.75;;;;;;;;;;6218604;23;20035;-79
2022/04/17 10:59:01;;;;;;;7.85;7.10;;;;;;;;;;6245447;23;20000;-79
2022/04/17 11:01:47;;;;;;;8.65;6.60;;;;;;;;;;6245328;23;20019;-81
2022/04/17 11:04:19;;;;;;;7.57;6.75;;;;;;;;;;6225808;23;20058;-79
2022/04/17 11:06:45;;;;;;;7.97;7.18;;;;;;;;;;6245955;23;20004;-82
2022/04/17 11:09:15;;;;;;;11.20;9.90;;;;;;;;;;6245708;23;20000;-79
2022/04/17 11:11:43;;;;;;;9.40;7.93;;;;;;;;;;6245549;23;20005;-79
2022/04/17 11:14:12;;;;;;;8.75;7.80;;;;;;;;;;6218845;23;20007;-78
2022/04/17 11:16:57;;;;;;;9.55;8.50;;;;;;;;;;6245715;23;20000;-80
2022/04/17 11:19:24;;;;;;;9.02;8.13;;;;;;;;;;6245612;23;20007;-79
2022/04/17 11:21:51;;;;;;;9.23;7.78;;;;;;;;;;6218510;23;20019;-84
2022/04/17 11:24:19;;;;;;;10.00;9.05;;;;;;;;;;6245643;23;20000;-80
2022/04/17 11:26:54;;;;;;;11.38;10.18;;;;;;;;;;6245436;23;20031;-80
2022/04/17 11:29:40;;;;;;;8.70;7.90;;;;;;;;;;6245382;23;20062;-78
2022/04/17 11:32:26;;;;;;;9.10;6.72;;;;;;;;;;6218548;23;20000;-82
2022/04/17 11:34:52;;;;;;;8.88;8.02;;;;;;;;;;6245264;23;20062;-78
2022/04/17 11:37:37;;;;;;;8.00;7.20;;;;;;;;;;6245288;23;20004;-79
2022/04/17 11:40:03;;;;;;;;;;;;;;;;;;6245973;23;20004;-81
2022/04/17 11:42:32;;;;;;;8.52;7.65;;;;;;;;;;6245179;23;19911;-79
2022/04/17 11:45:01;;;;;;;11.02;9.93;;;;;;;;;;6245162;23;20011;-81
2022/04/17 11:47:28;;;;;;;8.40;7.50;;;;;;;;;;6245362;23;20011;-78
2022/04/17 11:49:54;;;;;;;9.00;8.10;;;;;;;;;;6245261;23;20446;-79
2022/04/17 11:52:21;;;;;;;7.78;6.50;;;;;;;;;;6244825;23;20451;-80
2022/04/17 11:54:48;;;;;;;8.80;7.90;;;;;;;;;;6245268;23;20062;-81
2022/04/17 11:57:15;;;;;;;9.15;7.95;;;;;;;;;;6218457;23;20332;-78
2022/04/17 12:00:05;;;;;;;7.32;6.55;;;;;;;;;;6245182;23;20004;-80
2022/04/17 12:02:31;;;;;;;7.47;6.78;;;;;;;;;;6245010;23;20374;-84
2022/04/17 12:05:07;;;;;;;12.00;10.68;;;;;;;;;;6245349;23;20008;-79
2022/04/17 12:07:33;;;;;;;7.93;7.18;;;;;;;;;;6245014;23;20145;-80
2022/04/17 12:10:09;;;;;;;10.52;9.45;;;;;;;;;;6245289;23;20000;-78
2022/04/17 12:12:36;;;;;;;8.75;7.85;;;;;;;;;;6245199;23;20079;-77
2022/04/17 12:15:03;;;;;;;10.95;9.50;;;;;;;;;;6245396;23;20428;-79
2022/04/17 12:17:38;;;;;;;9.95;8.93;;;;;;;;;;6245152;23;20004;-80
2022/04/17 12:20:15;;;;;;;8.98;8.07;;;;;;;;;;6245047;23;20031;-80
2022/04/17 12:22:42;;;;;;;9.48;8.57;;;;;;;;;;6217595;23;20016;-78
2022/04/17 12:25:19;;;;;;;9.30;8.38;;;;;;;;;;6245027;23;20000;-80
2022/04/17 12:27:46;;;;;;;9.65;8.75;;;;;;;;;;6245232;23;20004;-79
2022/04/17 12:30:12;;;;;;;9.93;9.02;;;;;;;;;;6245259;23;20000;-81
2022/04/17 12:32:45;;;;;;;9.98;8.98;;;;;;;;;;6245098;23;20007;-81
2022/04/17 12:35:14;;;;;;;10.77;9.80;;;;;;;;;;6245305;23;20011;-80
2022/04/17 12:37:41;;;;;;;10.90;9.63;;;;;;;;;;6244895;23;20011;-78
2022/04/17 12:40:08;;;;;;;8.90;8.00;;;;;;;;;;6245289;23;20004;-79
2022/04/17 12:42:34;;;;;;;8.95;8.10;;;;;;;;;;6244953;23;20008;-82
2022/04/17 12:45:00;;;;;;;9.93;8.80;;;;;;;;;;6244856;23;20075;-79
2022/04/17 12:47:29;;;;;;;11.80;10.52;;;;;;;;;;6244963;23;20015;-78
2022/04/17 12:50:03;;;;;;;16.90;13.48;;;;;;;;;;6244769;23;20028;-78
2022/04/17 12:52:29;;;;;;;10.55;9.38;;;;;;;;;;6244954;23;20012;-81
2022/04/17 12:54:56;;;;;;;8.98;8.02;;;;;;;;;;6244694;23;20007;-79
2022/04/17 12:57:23;;;;;;;7.63;6.82;;;;;;;;;;6218352;23;20027;-78
2022/04/17 12:59:52;;;;;;;8.27;7.45;;;;;;;;;;6244611;23;20008;-80
2022/04/17 13:02:19;;;;;;;8.70;7.53;;;;;;;;;;6218399;23;20016;-79
2022/04/17 13:04:47;;;;;;;11.88;10.07;;;;;;;;;;6246476;23;20004;-82
2022/04/17 13:07:14;;;;;;;9.48;7.35;;;;;;;;;;6247229;23;20008;-81
2022/04/17 13:09:59;;;;;;;7.03;6.40;;;;;;;;;;6246764;23;20327;-80
2022/04/17 13:12:31;;;;;;;9.15;7.40;;;;;;;;;;6246804;23;20023;-80
2022/04/17 13:14:57;;;;;;;8.95;7.25;;;;;;;;;;6220203;23;20015;-82
2022/04/17 13:17:24;;;;;;;9.10;8.13;;;;;;;;;;6246704;23;20011;-78
2022/04/17 13:19:50;;;;;;;12.88;8.77;;;;;;;;;;6247080;23;20008;-80
2022/04/17 13:22:16;;;;;;;9.32;8.30;;;;;;;;;;6246906;23;20530;-84
2022/04/17 13:24:45;;;;;;;9.57;7.95;;;;;;;;;;6246731;23;20027;-81
2022/04/17 13:27:12;;;;;;;8.65;7.75;;;;;;;;;;6246982;23;20004;-81
2022/04/17 13:29:38;;;;;;;10.10;9.10;;;;;;;;;;6246780;23;20007;-80
2022/04/17 13:32:05;;;;;;;12.85;10.68;;;;;;;;;;6246904;23;20117;-79
2022/04/17 13:34:33;;;;;;;8.07;7.28;;;;;;;;;;6246696;23;20443;-83
2022/04/17 13:39:47;;;;;;;9.10;8.20;;;;;;;;;;6246945;23;20096;-80
2022/04/17 13:42:13;;;;;;;7.50;6.80;;;;;;;;;;6246379;23;20435;-81
2022/04/17 13:44:39;;;;;;;10.07;7.38;;;;;;;;;;6246624;23;20588;-83
2022/04/17 13:47:11;;;;;;;6.68;6.05;;;;;;;;;;6246452;23;20010;-85
2022/04/17 13:49:37;;;;;;;6.43;5.75;;;;;;;;;;6219761;23;20062;-81
2022/04/17 13:52:04;;;;;;;10.32;9.32;;;;;;;;;;6218831;23;20027;-83
2022/04/17 13:54:32;;;;;;;8.10;7.13;;;;;;;;;;6246831;23;20004;-80
2022/04/17 13:57:03;;;;;;;6.88;6.20;;;;;;;;;;6247071;23;19996;-80
2022/04/17 13:59:29;;;;;;;9.02;7.82;;;;;;;;;;6246799;23;20082;-81
2022/04/17 14:02:03;;;;;;;6.20;5.47;;;;;;;;;;6246547;23;20016;-83
2022/04/17 14:04:29;;;;;;;8.68;7.70;;;;;;;;;;6246494;23;20367;-80
2022/04/17 14:06:56;;;;;;;6.13;5.50;;;;;;;;;;6246447;23;20011;-85
2022/04/17 14:09:24;;;;;;;8.70;7.80;;;;;;;;;;6246667;23;20033;-79
2022/04/17 14:11:51;;;;;;;8.48;7.05;;;;;;;;;;6246478;23;20031;-81
2022/04/17 14:14:17;;;;;;;8.30;7.40;;;;;;;;;;6246143;23;20015;-79
2022/04/17 14:16:43;;;;;;;8.57;7.72;;;;;;;;;;6246449;23;20011;-79
2022/04/17 14:19:09;;;;;;;8.20;7.43;;;;;;;;;;6246165;23;20000;-80
2022/04/17 14:21:36;;;;;;;9.07;8.18;;;;;;;;;;6246348;23;20431;-80
2022/04/17 14:24:02;;;;;;;7.70;7.00;;;;;;;;;;6246174;23;20000;-79
2022/04/17 14:26:28;;;;;;;6.10;5.50;;;;;;;;;;6219064;23;20336;-85
2022/04/17 14:29:03;;;;;;;9.02;7.65;;;;;;;;;;6246249;23;20011;-83
2022/04/17 14:31:29;;;;;;;6.53;5.93;;;;;;;;;;6219396;23;20137;-78
2022/04/17 14:33:56;;;;;;;8.82;7.93;;;;;;;;;;6246100;23;20004;-80
2022/04/17 14:36:26;;;;;;;8.15;6.65;;;;;;;;;;6246460;23;20484;-82
2022/04/17 14:38:53;;;;;;;6.88;6.18;;;;;;;;;;6246027;23;20083;-81
2022/04/17 14:41:22;;;;;;;7.68;6.55;;;;;;;;;;6247117;23;20431;-80
2022/04/17 14:43:48;;;;;;;6.45;5.82;;;;;;;;;;6218932;23;20513;-82
2022/04/17 14:46:22;;;;;;;5.63;4.97;;;;;;;;;;6246200;23;20000;-84
2022/04/17 14:48:51;;;;;;;7.65;6.85;;;;;;;;;;6245846;23;20011;-84
2022/04/17 14:51:17;;;;;;;8.00;6.63;;;;;;;;;;6246225;23;20004;-81
2022/04/17 14:53:48;;;;;;;7.25;6.45;;;;;;;;;;6245716;23;20023;-81
2022/04/17 14:56:15;;;;;;;8.20;6.90;;;;;;;;;;6246206;23;20004;-78
2022/04/17 14:58:44;;;;;;;9.32;7.82;;;;;;;;;;6245771;23;20458;-83
2022/04/17 15:01:10;;;;;;;6.38;5.78;;;;;;;;;;6246018;23;20054;-80
2022/04/17 15:03:36;;;;;;;7.53;6.65;;;;;;;;;;6245797;23;20012;-78
2022/04/17 15:06:03;;;;;;;7.10;6.40;;;;;;;;;;6245881;23;20000;-82
2022/04/17 15:08:29;;;;;;;6.00;5.40;;;;;;;;;;6246018;23;20416;-80
2022/04/17 15:10:55;;;;;;;7.32;5.95;;;;;;;;;;6219040;23;20004;-80
2022/04/17 15:13:21;;;;;;;7.75;6.93;;;;;;;;;;6245945;23;20027;-82
2022/04/17 15:15:50;;;;;;;6.90;6.20;;;;;;;;;;6218733;23;20042;-81
2022/04/17 15:18:16;;;;;;;8.70;5.90;;;;;;;;;;6245843;23;20439;-80
2022/04/17 15:20:43;;;;;;;6.18;5.10;;;;;;;;;;6245774;23;20004;-80
2022/04/17 15:23:09;;;;;;;5.85;5.25;;;;;;;;;;6245888;23;20019;-80
2022/04/17 15:25:36;;;;;;;5.72;4.93;;;;;;;;;;6245378;23;20012;-79
2022/04/17 15:28:04;;;;;;;5.38;4.85;;;;;;;;;;6245466;23;20435;-79
2022/04/17 15:30:30;;;;;;;4.25;3.92;;;;;;;;;;6218770;23;20004;-81
2022/04/17 15:32:57;;;;;;;7.03;5.07;;;;;;;;;;6245433;23;20427;-78
2022/04/17 15:35:24;;;;;;;5.38;4.00;;;;;;;;;;6245706;23;20008;-82
2022/04/17 15:37:52;;;;;;;5.70;4.65;;;;;;;;;;6245362;23;20004;-80
2022/04/17 15:40:19;;;;;;;4.63;4.22;;;;;;;;;;6245579;23;20026;-81
2022/04/17 15:42:45;;;;;;;4.72;4.22;;;;;;;;;;6245288;23;20091;-80